createdAt,value
2022-09-23T00:19:48.181Z,12.43
2022-09-23T00:22:20.985Z,9.63
2022-09-23T00:24:47.284Z,12.63
2022-09-23T00:27:13.470Z,12.03
2022-09-23T00:29:39.976Z,13.13
2022-09-23T00:32:06.236Z,11.03
2022-09-23T00:34:33.157Z,13.43
2022-09-23T00:37:31.590Z,14.93
2022-09-23T00:45:18.653Z,10.07
2022-09-23T00:47:55.877Z,10.67
2022-09-23T00:50:36.953Z,11.80
2022-09-23T00:53:08.734Z,10.33
2022-09-23T00:58:30.473Z,10.10
2022-09-23T01:00:59.682Z,10.27
2022-09-23T01:18:59.478Z,10.47
2022-09-23T01:21:38.907Z,11.33
2022-09-23T01:24:58.440Z,11.17
2022-09-23T01:27:41.213Z,10.30
2022-09-23T01:30:32.414Z,12.07
2022-09-23T01:33:04.331Z,14.27
2022-09-23T01:35:53.349Z,8.77
2022-09-23T01:54:59.559Z,11.97
2022-09-23T01:57:38.268Z,9.70
2022-09-23T02:00:15.973Z,9.33
2022-09-23T02:02:58.592Z,10.17
2022-09-23T02:05:50.758Z,10.10
2022-09-23T02:08:38.359Z,10.50
2022-09-23T02:11:14.609Z,12.40
2022-09-23T02:13:47.386Z,11.30
2022-09-23T02:32:35.979Z,13.40
2022-09-23T02:35:18.515Z,11.57
2022-09-23T02:38:30.118Z,13.60
2022-09-23T02:41:04.776Z,11.63
2022-09-23T02:43:39.823Z,13.23
2022-09-23T02:46:07.088Z,14.00
2022-09-23T03:02:35.399Z,17.93
2022-09-23T03:05:38.183Z,16.73
2022-09-23T03:08:13.440Z,17.80
2022-09-23T03:11:01.184Z,14.33
2022-09-23T03:13:50.355Z,15.10
2022-09-23T03:16:29.691Z,13.33
2022-09-23T03:19:24.488Z,19.20
2022-09-23T03:36:10.823Z,16.63
2022-09-23T03:38:42.530Z,17.33
2022-09-23T03:41:19.692Z,14.40
2022-09-23T03:44:18.962Z,17.17
2022-09-23T03:46:48.989Z,13.87
2022-09-23T03:49:17.381Z,13.97
2022-09-23T03:51:44.784Z,14.60
2022-09-23T03:54:11.503Z,12.57
2022-09-23T04:12:27.833Z,12.00
2022-09-23T04:14:54.199Z,10.33
2022-09-23T04:17:20.436Z,11.03
2022-09-23T04:19:46.648Z,11.30
2022-09-23T04:22:13.099Z,10.20
2022-09-23T04:24:39.449Z,12.03
2022-09-23T04:27:05.722Z,9.47
2022-09-23T04:29:32.209Z,16.03
2022-09-23T04:37:20.320Z,13.20
2022-09-23T04:39:46.703Z,11.90
2022-09-23T04:42:13.390Z,15.10
2022-09-23T04:44:40.022Z,15.97
2022-09-23T04:47:06.493Z,14.50
2022-09-23T04:49:32.982Z,16.10
2022-09-23T04:51:59.231Z,14.87
2022-09-23T04:54:25.717Z,15.30
2022-09-23T05:21:35.444Z,17.20
2022-09-23T05:25:17.598Z,17.97
2022-09-23T05:27:51.765Z,12.37
2022-09-23T05:30:18.212Z,13.70
2022-09-23T05:32:44.996Z,22.63
2022-09-23T05:35:11.285Z,14.07
2022-09-23T05:37:44.468Z,20.97
2022-09-23T05:40:10.672Z,12.93
2022-09-23T05:42:39.334Z,13.83
2022-09-23T06:01:14.169Z,14.20
2022-09-23T06:03:43.728Z,12.60
2022-09-23T06:06:17.350Z,14.60
2022-09-23T06:08:45.402Z,12.83
2022-09-23T06:11:13.068Z,12.50
2022-09-23T06:13:40.400Z,10.10
2022-09-23T06:16:47.293Z,18.30
2022-09-23T06:23:59.853Z,15.37
2022-09-23T06:27:01.786Z,12.53
2022-09-23T06:29:43.205Z,9.73
2022-09-23T06:33:04.246Z,10.27
2022-09-23T06:35:56.526Z,9.23
2022-09-23T06:38:26.096Z,11.07
2022-09-23T06:40:54.687Z,16.60
2022-09-23T06:48:26.400Z,12.93
2022-09-23T06:50:53.627Z,14.87
2022-09-23T06:53:23.039Z,10.40
2022-09-23T06:56:21.443Z,13.53
2022-09-23T06:58:48.779Z,9.97
2022-09-23T07:01:16.768Z,12.70
2022-09-23T07:03:45.149Z,9.90
2022-09-23T07:21:45.474Z,6.40
2022-09-23T07:24:20.562Z,11.00
2022-09-23T07:26:48.974Z,7.40
2022-09-23T07:29:15.467Z,10.07
2022-09-23T07:31:43.234Z,10.60
2022-09-23T07:34:17.225Z,7.63
2022-09-23T07:36:43.969Z,5.40
2022-09-23T07:39:12.071Z,8.33
2022-09-23T07:54:48.056Z,8.50
2022-09-23T07:57:14.550Z,8.37
2022-09-23T07:59:42.537Z,10.80
2022-09-23T08:02:17.800Z,6.73
2022-09-23T08:04:44.119Z,3.10
2022-09-23T08:07:12.565Z,3.30
2022-09-23T08:09:41.173Z,4.97
2022-09-23T08:12:18.167Z,1.00
2022-09-23T08:30:21.678Z,3.70
2022-09-23T08:32:50.840Z,2.73
2022-09-23T08:35:18.422Z,3.63
2022-09-23T08:38:03.605Z,1.77
2022-09-23T08:40:45.331Z,3.73
2022-09-23T08:43:30.348Z,3.20
2022-09-23T08:46:02.320Z,3.53
2022-09-23T08:48:36.433Z,4.57
2022-09-23T09:07:47.056Z,5.43
2022-09-23T09:10:24.907Z,8.40
2022-09-23T09:13:06.735Z,6.03
2022-09-23T09:15:42.176Z,8.07
2022-09-23T09:18:19.161Z,4.53
2022-09-23T09:21:09.149Z,5.17
2022-09-23T09:23:38.461Z,5.23
2022-09-23T09:26:33.529Z,4.53
2022-09-23T10:03:12.844Z,1.97
2022-09-23T10:05:46.770Z,2.90
2022-09-23T10:08:32.781Z,3.63
2022-09-23T10:11:08.569Z,2.00
2022-09-23T10:13:43.654Z,1.17
2022-09-23T10:16:14.850Z,1.50
2022-09-23T10:18:47.284Z,1.43
2022-09-23T10:37:01.710Z,1.37
2022-09-23T10:39:47.715Z,1.97
2022-09-23T10:42:58.909Z,1.50
2022-09-23T10:45:54.594Z,1.40
2022-09-23T10:48:46.714Z,1.93
2022-09-23T10:51:26.380Z,1.23
2022-09-23T10:54:05.403Z,3.53
2022-09-23T11:16:09.726Z,1.13
2022-09-23T11:18:49.125Z,1.13
2022-09-23T11:21:40.327Z,2.53
2022-09-23T11:24:06.788Z,5.00
2022-09-23T11:26:55.301Z,1.77
2022-09-23T11:29:48.922Z,1.23
2022-09-23T11:57:07.856Z,1.20
2022-09-23T12:00:33.649Z,1.07
2022-09-23T12:03:53.403Z,1.10
2022-09-23T12:07:21.628Z,2.50
2022-09-23T12:10:26.752Z,2.03
2022-09-23T12:31:43.043Z,1.90
2022-09-23T12:34:48.625Z,3.73
2022-09-23T12:37:26.561Z,2.10
2022-09-23T12:39:58.020Z,2.07
2022-09-23T12:42:28.874Z,1.43
2022-09-23T12:45:34.531Z,3.07
2022-09-23T12:48:26.502Z,1.63
2022-09-23T13:06:51.194Z,1.20
2022-09-23T13:09:25.138Z,2.37
2022-09-23T13:12:16.828Z,1.13
2022-09-23T13:15:23.937Z,1.90
2022-09-23T13:18:22.717Z,4.03
2022-09-23T13:21:20.961Z,2.73
2022-09-23T13:44:56.669Z,1.90
2022-09-23T13:48:39.058Z,1.80
2022-09-23T13:51:30.021Z,1.70
2022-09-23T13:54:48.634Z,2.07
2022-09-23T13:58:09.573Z,2.93
2022-09-23T14:49:01.183Z,1.23
2022-09-23T14:52:31.816Z,1.70
2022-09-23T14:56:01.130Z,1.60
2022-09-23T14:59:18.655Z,1.77
2022-09-23T15:02:00.163Z,4.27
2022-09-23T15:24:34.641Z,3.50
2022-09-23T15:27:02.226Z,1.60
2022-09-23T15:29:28.735Z,4.10
2022-09-23T15:31:55.101Z,1.67
2022-09-23T15:34:21.797Z,1.30
2022-09-23T15:36:49.026Z,3.30
2022-09-23T15:39:15.526Z,2.70
2022-09-23T15:41:42.893Z,2.27
2022-09-23T15:49:52.147Z,4.57
2022-09-23T15:53:13.074Z,6.47
2022-09-23T15:56:29.328Z,2.27
2022-09-23T15:59:32.274Z,1.37
2022-09-23T16:02:20.506Z,2.60
2022-09-23T16:05:42.427Z,2.47
2022-09-23T16:23:46.780Z,3.00
2022-09-23T16:27:16.163Z,3.10
2022-09-23T16:30:37.161Z,1.67
2022-09-23T16:34:01.588Z,3.53
2022-09-23T16:37:22.966Z,2.27
2022-09-23T16:40:24.276Z,3.50
2022-09-23T16:56:51.899Z,3.70
2022-09-23T17:00:31.857Z,5.20
2022-09-23T17:03:48.412Z,1.37
2022-09-23T17:06:29.579Z,2.30
2022-09-23T17:09:50.602Z,2.20
2022-09-23T17:13:11.553Z,7.27
2022-09-23T17:16:12.901Z,4.83
2022-09-23T17:45:55.939Z,3.97
2022-09-23T17:48:58.104Z,5.40
2022-09-23T17:52:19.184Z,6.67
2022-09-23T17:55:40.315Z,6.80
2022-09-23T17:59:11.915Z,4.17
2022-09-23T18:02:33.151Z,6.60
2022-09-23T18:21:28.647Z,6.13
2022-09-23T18:25:22.705Z,7.57
2022-09-23T18:28:59.344Z,4.17
2022-09-23T18:32:20.400Z,4.03
2022-09-23T18:35:41.334Z,4.03
2022-09-23T18:54:00.637Z,4.10
2022-09-23T18:57:32.198Z,4.47
2022-09-23T19:00:33.367Z,7.43
2022-09-23T19:03:54.438Z,6.00
2022-09-23T19:07:15.377Z,4.10
2022-09-23T19:10:17.852Z,8.40
2022-09-23T19:12:59.965Z,6.10
2022-09-23T19:37:29.162Z,4.43
2022-09-23T19:40:30.428Z,4.33
2022-09-23T19:43:11.690Z,4.47
2022-09-23T19:46:32.809Z,4.97
2022-09-23T19:50:03.074Z,3.20
2022-09-23T19:53:04.832Z,5.07
2022-09-23T20:10:09.327Z,4.20
2022-09-23T20:13:31.826Z,2.97
2022-09-23T20:16:37.459Z,5.57
2022-09-23T20:19:34.220Z,5.47
2022-09-23T20:22:55.342Z,3.43
2022-09-23T20:26:34.594Z,3.50
2022-09-23T20:44:14.232Z,3.73
2022-09-23T20:47:42.537Z,5.30
2022-09-23T20:51:03.554Z,4.30
2022-09-23T20:54:24.565Z,13.13
2022-09-23T20:57:27.013Z,10.33
2022-09-23T21:00:08.578Z,13.40
2022-09-23T21:03:32.203Z,8.60
2022-09-23T21:28:44.742Z,9.60
2022-09-23T21:32:05.719Z,11.60
2022-09-23T21:35:26.822Z,4.90
2022-09-23T21:38:27.804Z,6.83
2022-09-23T21:41:11.185Z,7.13
2022-09-23T21:44:12.288Z,5.87
2022-09-23T22:06:39.729Z,6.20
2022-09-23T22:10:00.690Z,8.67
2022-09-23T22:13:21.669Z,6.10
2022-09-23T22:16:23.855Z,6.53
2022-09-23T22:19:17.305Z,9.03
2022-09-23T22:22:38.269Z,7.60
2022-09-23T22:42:51.970Z,9.90
2022-09-23T22:45:56.688Z,8.57
2022-09-23T22:49:14.972Z,7.83
2022-09-23T22:52:35.950Z,7.90
2022-09-23T22:55:57.778Z,9.27
2022-09-23T22:58:58.784Z,5.70
2022-09-23T23:01:41.261Z,6.53
2022-09-23T23:23:54.710Z,7.70
2022-09-23T23:27:15.653Z,6.00
2022-09-23T23:29:56.955Z,9.07
2022-09-23T23:33:18.114Z,6.67
2022-09-23T23:36:40.812Z,9.70
2022-09-23T23:40:01.810Z,9.17
